x

New Dungeness - 17 Nm Ne Of Port Angeles, Wa (46088) Wave Buoy

9:50 - Thu 27th Nov 2014 All times are PST. -8 hours from GMT.

  • Sig Wave height 1.0ft
  • Swell Direction
  • Peak Period 3s
  • Average Period 3s
  • Wind
    11mph, 13mph gusts
  • Sea Temp 49°f
  • Ar Temp 51°f
  • Sea Pressure 1007.6mb
  • New Dungeness - 17 Nm Ne Of Port Angeles, Wa
  • New Dungeness - 17 Nm Ne Of Port Angeles, Wa

More Historic Weather Station data

Upgrade to MSW Pro to gain access to the past 30 days of data for over 8000 Wavebouys and Weather Stations around the globe.

Join Pro

Comparision Forecast

View Surf forecast
   
Qui 11/27 9:50 1ft 3s 3s 11 13 mph 1007.6mb 49f 51f
9:20 1ft 4s 3s 11 16 mph 1007.8mb 49f 50f
8:50 1ft 4s 4s 9 13 mph 1007.6mb 49f 50f
8:20 1ft 4s 4s 7 9 mph 1007.5mb 49f 50f
7:50 1ft 4s 3s 9 11 mph 1007.3mb 49f 50f
7:20 1ft 3s 3s 7 9 mph 1007.4mb 49f 51f
6:50 1ft 3s 3s 13
mph
1007.1mb 49f 51f
6:20 1ft 3s 3s 13 16 mph 1007.1mb 49f 51f
5:50 1ft 3s 3s 13 16 mph 1007.4mb 49f 51f
5:20 1ft 3s 3s 13 18 mph 1007.5mb 49f 52f
4:50 1ft 3s 3s 11 13 mph 1008.1mb 49f 52f
4:20 0.7ft  -  3s 13 18 mph 1008.1mb 49f 53f
3:50 0.7ft  -  4s 11 16 mph 1008.5mb 49f 53f
3:20 0.7ft  -  3s 9 16 mph 1008.8mb 49f 53f
2:50 0.7ft  -  3s 9 11 mph 1008.9mb 49f 52f
2:20 1ft 3s 3s 7 11 mph 1008.6mb 49f 51f
1:50 0.7ft  -  3s 7 9 mph 1008.5mb 49f 50f
1:20 0.7ft  -  3s 2 4 mph 1008.6mb 49f 49f
12:50 1ft 3s 3s 2 4 mph 1008.2mb 49f 50f
12:20 1ft 3s 3s 7 9 mph 1008.2mb 49f 50f
Qua 11/26 11:50 1ft 3s 3s 4
mph
1008.1mb 50f 50f
11:20 1ft 4s 3s 7 9 mph 1008.1mb 49f 50f
10:50 0.7ft  -  3s 7 9 mph 1008.2mb 49f 50f
10:20 0.7ft  -  4s 4 7 mph 1008.5mb 49f 50f
9:50 0.3ft  -  4s 4
mph
1008.9mb 49f 50f
9:20 0.3ft  -  4s 2
mph
1009mb 49f 50f
8:50 0.3ft  -  4s 2 4 mph 1009.1mb 49f 50f
8:20 0.3ft  -  5s 7
mph
1009.1mb 49f 50f
7:50 0.3ft  -  5s 4
mph
1010.2mb 49f 50f
7:20 0.3ft  -  4s 7 9 mph 1010.2mb 49f 50f
6:50 0.3ft  -  4s  -  2 mph 1011mb 49f 50f
6:20 0.3ft  -  4s 7
mph
1011.4mb 49f 50f
5:50 0.3ft  -  4s 4
mph
1011.8mb 49f 50f
5:20 0.3ft  -  4s 4 7 mph 1012.8mb 49f 50f
4:50 0.3ft  -  4s 2 4 mph 1013.2mb 49f 50f
4:20 0.3ft  -  5s 7
mph
1013.1mb 49f 50f
3:50 0.3ft  -  4s 7 9 mph 1013.9mb 49f 50f
3:20 0.3ft  -  4s 4 7 mph 1014.5mb 49f 50f
2:50 0.3ft  -  4s 2 4 mph 1014.5mb 49f 50f
2:20 0.3ft  -  4s 4
mph
1014.6mb 49f 50f
1:50 0.3ft  -  4s 7 9 mph 1015.2mb 49f 50f
1:20 0.3ft  -  4s 7 9 mph 1016mb 49f 50f
12:50 0.3ft  -  4s 9
mph
1016.4mb 49f 50f
12:20 0.3ft  -  4s 9 11 mph 1016.6mb 49f 50f
11:50 0.3ft  -  5s 7 9 mph 1017.3mb 49f 50f
11:20 0.3ft  -  4s 9
mph
1017.4mb 49f 50f
10:50 0.3ft  -  5s 4 7 mph 1017.8mb 49f 50f
10:20 0.3ft  -  5s 7 9 mph 1017.5mb 49f 49f
9:50 0.3ft  -  5s 7
mph
1017.7mb 49f 49f
9:20 0.3ft  -  5s 7
mph
1017.9mb 49f 49f
8:50 0.3ft  -  4s 2 4 mph 1018.1mb 49f 49f
8:20 0.3ft  -  4s 2
mph
1018.5mb 49f 48f
7:50 0.3ft  -  4s 2 4 mph 1018.8mb 49f 48f
7:20 0.3ft  -  4s 7 9 mph 1019mb 49f 48f
6:50 0.3ft  -  4s 7
mph
1018.7mb 49f 49f
6:20 0.3ft  -  3s 2 4 mph 1018.2mb 49f 49f
5:50 0.3ft  -  4s 4 7 mph 1018.3mb 49f 50f
5:20 0.3ft  -  4s 4 7 mph 1018.6mb 49f 50f
4:50 0.3ft  -  4s 4 7 mph 1018.8mb 49f 50f
4:20 0.3ft  -  5s 2
mph
1019.2mb 49f 49f
3:50 0.7ft  -  5s 4
mph
1019.5mb 49f 49f
3:20 0.7ft  -  4s  -  2 mph 1019.9mb 49f 49f
2:50 0.7ft  -  4s  -  2 mph 1020.1mb 49f 49f
2:20 0.7ft  -  4s 9 11 mph 1020mb 49f 49f
1:50 0.7ft  -  4s 11 13 mph 1020mb 49f 49f
1:20 0.7ft  -  5s 13 16 mph 1019.8mb 49f 49f
12:50 0.7ft  -  7s 11 16 mph 1020mb 49f 48f
12:20 0.3ft  -  5s 11 13 mph 1020.3mb 49f 48f
Ter 11/25 11:50 0.7ft  -  4s 7 9 mph 1020.6mb 49f 47f
11:20 0.3ft  -  6s 2 4 mph 1020.8mb 49f 46f
10:50 0.3ft  -  6s 2 4 mph 1020.5mb 49f 46f
10:20 0.3ft  -  7s 2
mph
1020.8mb 49f 46f
9:50 0.3ft  -  5s 2 4 mph 1020.5mb 49f 46f
9:20 0.3ft  -  5s 2
mph
1020.6mb 49f 46f
8:50 0.3ft  -  5s 9 16 mph 1020.2mb 49f 45f
8:20 0.3ft  -  5s 7
mph
1020.7mb 49f 46f
7:50 0.3ft  -  4s 9
mph
1020.6mb 49f 45f
7:20 0.3ft  -  4s 11 13 mph 1020.5mb 49f 45f
6:50 0.3ft  -  4s 7 9 mph 1020.9mb 49f 46f
6:20 0.3ft  -  3s 7 9 mph 1021.1mb 49f 46f
5:50 0.7ft  -  4s 11 13 mph 1021.1mb 49f 46f
5:20 0.7ft  -  3s 9 11 mph 1021.4mb 49f 46f
4:50 0.7ft  -  3s 9 11 mph 1021.5mb 49f 46f
4:20 0.7ft  -  3s 9 11 mph 1021.8mb 49f 46f
3:50 0.7ft  -  3s 9 11 mph 1022.1mb 49f 46f
3:20 0.7ft  -  3s 11
mph
1022.2mb 49f 46f
2:50 0.7ft  -  3s 9 11 mph 1022.4mb 49f 46f
2:20 0.7ft  -  3s 11 13 mph 1022.4mb 49f 46f
1:50 0.3ft  -  3s 13 16 mph 1022.7mb 49f 46f
1:20 0.3ft  -  5s 11 13 mph 1023mb 49f 47f
12:50 0.3ft  -  4s 9 13 mph 1023.1mb 49f 46f
12:20 0.3ft  -  5s 7 9 mph 1023.5mb 49f 46f
11:50 0.3ft  -  4s 9 11 mph 1023.5mb 49f 47f
11:20 0.3ft  -  4s 9
mph
1023.6mb 49f 47f
10:50 0.7ft  -  4s 4 7 mph 1023.9mb 49f 47f
10:20 0.3ft  -  4s 4
mph
1023.9mb 49f 47f
9:50 0.3ft  -  4s 4
mph
1023.6mb 49f 47f
9:20 0.3ft  -  3s 4 7 mph 1023.7mb 49f 47f
8:50 0.3ft  -  3s 7
mph
1023.2mb 49f 47f
8:20 0.7ft  -  3s 4
mph
1023.1mb 49f 47f
7:50 0.7ft  -  4s 4 7 mph 1022.8mb 49f 47f
7:20 0.7ft  -  4s 2 4 mph 1022.8mb 49f 47f
6:50 0.7ft  -  4s 7 9 mph 1022.9mb 49f 47f
6:20 0.7ft  -  4s 9 11 mph 1022.3mb 49f 47f
5:50 0.7ft  -  4s 11 13 mph 1022.2mb 49f 47f
5:20 0.7ft  -  3s 9 11 mph 1021.7mb 49f 47f
4:50 1ft 3s 3s 9 11 mph 1021.2mb 49f 47f
4:20 0.7ft  -  3s 13 16 mph 1021.2mb 49f 47f
3:50 1ft 6s 4s 13 16 mph 1021.2mb 49f 47f
3:20 1ft 8s 4s 13 16 mph 1021.2mb 49f 48f
2:50 1.3ft 8s 4s 13 16 mph 1021.2mb 49f 47f
2:20 1.3ft 8s 4s 11 13 mph 1021.1mb 49f 48f
1:50 1.3ft 10s 4s 13 16 mph 1020.5mb 49f 48f
1:20 1ft 11s 4s 13 16 mph 1020.3mb 49f 48f
12:50 1ft 11s 4s 11 13 mph 1020mb 49f 48f
12:20 1.3ft 11s 5s 11 16 mph 1019.7mb 49f 48f
Seg 11/24 11:50 1.3ft 11s 4s 2 4 mph 1019.4mb 49f 48f
11:20 1.3ft 13s 4s 4 7 mph 1018.5mb 49f 48f
10:50 1.3ft 12s 3s 4
mph
1018.5mb 49f 48f
10:20 1.3ft 13s 3s 4 7 mph 1018.3mb 49f 48f
9:50 1.6ft 4s 3s 2 4 mph 1018.4mb 49f 48f
9:20 1.6ft 4s 4s  -  2 mph 1018.1mb 49f 48f
8:50 1.6ft 4s 3s 4 7 mph 1017.5mb 49f 48f
8:20 2ft 4s 4s 7 9 mph 1017.8mb 49f 48f
7:20 2ft 3s 3s 11 13 mph 1016.9mb 49f 50f
6:50 1.3ft 3s 3s 11 13 mph 1016.6mb 49f 49f
6:20 1.3ft 3s 3s 9 11 mph 1017mb 49f 49f
5:50 1ft 15s 3s 7 11 mph 1017.3mb 49f 49f
5:20 1ft 3s 3s 4 7 mph 1017.3mb 49f 47f
4:50 1.3ft 3s 3s 7 9 mph 1017.8mb 49f 46f
4:20 1.3ft 3s 3s 11 13 mph 1018.9mb 49f 46f
3:50 1.6ft 3s 3s 13 16 mph 1019.5mb 49f 47f
3:20 1.6ft 4s 3s 13 16 mph 1020.5mb 49f 48f
2:50 1.6ft 4s 3s 16 18 mph 1020.5mb 49f 48f
2:20 1.6ft 3s 3s 13 16 mph 1021.3mb 49f 48f
1:50 2ft 4s 3s 16 20 mph 1021.3mb 49f 48f
1:20 2.5ft 4s 3s 13 16 mph 1021.8mb 49f 48f
12:50 2.5ft 3s 3s 13 16 mph 1022.1mb 49f 47f
12:20 2ft 4s 3s 16 20 mph 1022.3mb 49f 47f
11:50 2ft 3s 3s 18 20 mph 1022.6mb 49f 47f
11:20 1.6ft 3s 3s 16 20 mph 1023.3mb 49f 46f
10:50 1.6ft 3s 3s 18 20 mph 1023.9mb 49f 46f
10:20 1.6ft 3s 3s 20 22 mph 1024.3mb 49f 46f
9:50 1.6ft 3s 3s 16 18 mph 1024.7mb 49f 46f
9:20 1.6ft 3s 3s 18 20 mph 1024.7mb 49f 46f
8:50 1.6ft 3s 3s 16 20 mph 1025mb 49f 46f
8:20 1.6ft 3s 3s 11 13 mph 1025.1mb 49f 45f
7:50 1.6ft 13s 3s 13 16 mph 1025.3mb 49f 45f
7:20 1.6ft 14s 4s 13 16 mph 1025.3mb 49f 46f
6:50 1.3ft 3s 3s 16 18 mph 1025.7mb 49f 46f
6:20 1.3ft 13s  -  11 13 mph 1026.1mb 49f 46f
5:50 1.6ft 4s 3s 16 20 mph 1025.7mb 49f 46f
5:20 1.6ft 13s 4s 18 20 mph 1025.9mb 49f 47f
4:50 1ft 4s 3s 16 20 mph 1026.3mb 49f 47f
4:20 0.7ft  -  4s 11 13 mph 1027.1mb 49f 47f
3:50 1ft 12s 4s 11 13 mph 1027.4mb 49f 47f
3:20 1.3ft 3s 4s 7
mph
1027.5mb 49f 48f
2:50 1.3ft 6s 4s 9
mph
1027.7mb 49f 48f
2:20 1.6ft 7s 4s 7 9 mph 1027.3mb 49f 48f
1:50 2ft 7s 4s 4
mph
1027.3mb 49f 48f
1:20 2ft 10s 4s 7 9 mph 1027.3mb 49f 47f
12:50 2ft 4s 4s 9 11 mph 1027.3mb 49f 49f
12:20 2.5ft 8s 5s 11 13 mph 1027.3mb 49f 49f
Dom 11/23 11:50 2ft 11s 5s 9 11 mph 1027.4mb 49f 49f
11:20 2.5ft 11s 6s 9 13 mph 1027.2mb 49f 50f
10:50 1.6ft 8s 5s 11 16 mph 1026.9mb 49f 49f
10:20 1.6ft 5s 5s 9 11 mph 1026.3mb 49f 49f
9:50 2ft 6s 5s 7 9 mph 1025.8mb 49f 49f
9:20 1.6ft 14s 5s 7 9 mph 1025.6mb 49f 49f
8:50 1.6ft 13s 5s 11 16 mph 1025mb 49f 50f
8:20 1.6ft 12s 5s 13 18 mph 1024.7mb 49f 50f
7:50 2ft 13s 5s 16 20 mph 1024.4mb 49f 50f
7:20 2ft 5s 5s 18 20 mph 1024.1mb 49f 50f
6:50 2.5ft 5s 4s 18 22 mph 1023.9mb 49f 50f